LEBA/ODB METAR and TAF weather

Enter ICAO airport designator
Station Type Date Time Source
LEBA METAR 2022/01/29 01:30 UTC NOAA

LEBA 290130Z AUTO 07006KT CAVOK 07/01 Q1029


Station Type Date Time Source
LEBA Decoded METAR 2022/01/29 01:30 UTC NOAA

Cordoba / Aeropuerto, Spain (LEBA) 37-51N 004-51W 92M
Jan 28, 2022 - 08:30 PM EST / 2022.01.29 0130 UTC
Wind: from the ENE (070 degrees) at 7 MPH (6 KT):0
Visibility: greater than 7 mile(s):0
Temperature: 44 F (7 C)
Dew Point: 33 F (1 C)
Relative Humidity: 65%
Pressure (altimeter): 30.39 in. Hg (1029 hPa)
ob: LEBA 290130Z AUTO 07006KT CAVOK 07/01 Q1029
cycle: 1

Station Type Date Time Source
LEBA TAF 2022/01/28 15:27 UTC NOAA

TAF TAF LEBA 281400Z 2815/2915 05009KT CAVOK TX19/2815Z TN05/2907Z

Example: see airport list